sensor_id;sensor_type;location;lat;lon;timestamp;pressure;altitude;pressure_sealevel;temperature;humidity
48089;BME280;33867;50.314;7.802;2022-10-16T00:06:19;100058.09;;;12.97;100.00
48089;BME280;33867;50.314;7.802;2022-10-16T00:09:39;100054.66;;;12.71;100.00
48089;BME280;33867;50.314;7.802;2022-10-16T00:12:58;100050.47;;;12.84;100.00
48089;BME280;33867;50.314;7.802;2022-10-16T00:16:17;100052.69;;;12.97;100.00
48089;BME280;33867;50.314;7.802;2022-10-16T00:19:37;100045.38;;;12.73;100.00
48089;BME280;33867;50.314;7.802;2022-10-16T00:22:55;100056.91;;;12.92;100.00
48089;BME280;33867;50.314;7.802;2022-10-16T00:26:16;100063.13;;;12.84;100.00
48089;BME280;33867;50.314;7.802;2022-10-16T00:29:36;100054.66;;;12.71;100.00
48089;BME280;33867;50.314;7.802;2022-10-16T00:32:55;100052.00;;;12.95;100.00
48089;BME280;33867;50.314;7.802;2022-10-16T00:36:25;100049.31;;;12.95;100.00
48089;BME280;33867;50.314;7.802;2022-10-16T00:39:45;100047.06;;;12.74;100.00
48089;BME280;33867;50.314;7.802;2022-10-16T00:43:12;100069.72;;;12.81;100.00
48089;BME280;33867;50.314;7.802;2022-10-16T00:46:38;100067.19;;;12.80;100.00
48089;BME280;33867;50.314;7.802;2022-10-16T01:01:02;100096.22;;;12.86;99.35
48089;BME280;33867;50.314;7.802;2022-10-16T01:04:22;100090.53;;;12.97;98.49
48089;BME280;33867;50.314;7.802;2022-10-16T01:07:58;100090.19;;;12.92;97.82
48089;BME280;33867;50.314;7.802;2022-10-16T01:11:31;100089.81;;;12.87;98.46
48089;BME280;33867;50.314;7.802;2022-10-16T01:15:29;100070.78;;;12.54;100.00
48089;BME280;33867;50.314;7.802;2022-10-16T01:18:54;100073.19;;;12.57;100.00
48089;BME280;33867;50.314;7.802;2022-10-16T01:22:16;100105.63;;;12.66;100.00
48089;BME280;33867;50.314;7.802;2022-10-16T01:29:21;100073.25;;;12.74;100.00
48089;BME280;33867;50.314;7.802;2022-10-16T01:32:53;100087.78;;;12.81;99.99
48089;BME280;33867;50.314;7.802;2022-10-16T01:36:18;100091.81;;;12.77;100.00
48089;BME280;33867;50.314;7.802;2022-10-16T01:39:42;100087.44;;;12.84;99.29
48089;BME280;33867;50.314;7.802;2022-10-16T01:43:14;100090.19;;;12.92;98.39
48089;BME280;33867;50.314;7.802;2022-10-16T01:46:36;100082.53;;;12.71;100.00
48089;BME280;33867;50.314;7.802;2022-10-16T01:57:43;100080.28;;;12.58;100.00
48089;BME280;33867;50.314;7.802;2022-10-16T02:01:33;100098.75;;;12.79;100.00
48089;BME280;33867;50.314;7.802;2022-10-16T02:05:05;100105.84;;;12.80;99.69
48089;BME280;33867;50.314;7.802;2022-10-16T02:08:29;100097.84;;;12.63;100.00
48089;BME280;33867;50.314;7.802;2022-10-16T02:11:52;100096.19;;;12.78;100.00
48089;BME280;33867;50.314;7.802;2022-10-16T02:15:12;100094.22;;;12.80;100.00
48089;BME280;33867;50.314;7.802;2022-10-16T02:18:31;100105.06;;;12.96;100.00
48089;BME280;33867;50.314;7.802;2022-10-16T02:22:00;100102.19;;;12.98;99.23
48089;BME280;33867;50.314;7.802;2022-10-16T02:25:31;100113.34;;;13.11;97.86
48089;BME280;33867;50.314;7.802;2022-10-16T02:28:55;100115.50;;;12.83;100.00
48089;BME280;33867;50.314;7.802;2022-10-16T02:32:21;100133.75;;;12.97;99.66
48089;BME280;33867;50.314;7.802;2022-10-16T02:35:43;100138.16;;;12.98;99.84
48089;BME280;33867;50.314;7.802;2022-10-16T02:39:04;100149.13;;;12.97;100.00
48089;BME280;33867;50.314;7.802;2022-10-16T02:52:47;100117.38;;;12.91;100.00
48089;BME280;33867;50.314;7.802;2022-10-16T02:56:06;100129.88;;;12.92;100.00
48089;BME280;33867;50.314;7.802;2022-10-16T03:06:55;100125.47;;;12.91;100.00
48089;BME280;33867;50.314;7.802;2022-10-16T03:10:14;100093.50;;;12.78;100.00
48089;BME280;33867;50.314;7.802;2022-10-16T03:13:33;100068.19;;;12.87;100.00
48089;BME280;33867;50.314;7.802;2022-10-16T03:16:52;100066.53;;;12.94;100.00
48089;BME280;33867;50.314;7.802;2022-10-16T03:20:11;100074.44;;;12.87;100.00
48089;BME280;33867;50.314;7.802;2022-10-16T03:23:31;100099.31;;;12.99;100.00
48089;BME280;33867;50.314;7.802;2022-10-16T03:26:50;100123.97;;;12.96;100.00
48089;BME280;33867;50.314;7.802;2022-10-16T03:37:25;100141.75;;;12.65;100.00
48089;BME280;33867;50.314;7.802;2022-10-16T03:40:44;100151.59;;;12.74;100.00
48089;BME280;33867;50.314;7.802;2022-10-16T03:44:03;100152.00;;;12.95;100.00
48089;BME280;33867;50.314;7.802;2022-10-16T03:47:22;100146.38;;;12.80;100.00
48089;BME280;33867;50.314;7.802;2022-10-16T03:54:45;100149.94;;;12.89;100.00
48089;BME280;33867;50.314;7.802;2022-10-16T03:58:04;100155.75;;;13.10;100.00
48089;BME280;33867;50.314;7.802;2022-10-16T04:01:23;100153.81;;;12.86;100.00
48089;BME280;33867;50.314;7.802;2022-10-16T04:04:42;100161.81;;;12.96;100.00
48089;BME280;33867;50.314;7.802;2022-10-16T04:08:01;100170.63;;;13.06;100.00
48089;BME280;33867;50.314;7.802;2022-10-16T04:16:14;100163.00;;;13.02;100.00
48089;BME280;33867;50.314;7.802;2022-10-16T04:19:33;100166.88;;;12.91;100.00
48089;BME280;33867;50.314;7.802;2022-10-16T04:22:52;100169.56;;;12.99;100.00
48089;BME280;33867;50.314;7.802;2022-10-16T04:26:10;100177.03;;;13.13;100.00
48089;BME280;33867;50.314;7.802;2022-10-16T04:29:30;100186.25;;;13.21;98.75
48089;BME280;33867;50.314;7.802;2022-10-16T04:32:50;100183.88;;;13.26;99.99
48089;BME280;33867;50.314;7.802;2022-10-16T04:36:09;100191.88;;;13.01;100.00
48089;BME280;33867;50.314;7.802;2022-10-16T04:43:27;100181.78;;;13.11;100.00
48089;BME280;33867;50.314;7.802;2022-10-16T04:46:46;100190.91;;;13.02;100.00
48089;BME280;33867;50.314;7.802;2022-10-16T04:50:05;100172.56;;;12.88;100.00
48089;BME280;33867;50.314;7.802;2022-10-16T04:53:25;100178.06;;;13.04;100.00
48089;BME280;33867;50.314;7.802;2022-10-16T04:56:44;100191.47;;;13.22;98.96
48089;BME280;33867;50.314;7.802;2022-10-16T05:00:06;100182.25;;;12.99;100.00
48089;BME280;33867;50.314;7.802;2022-10-16T05:03:26;100194.94;;;13.06;100.00
48089;BME280;33867;50.314;7.802;2022-10-16T05:06:45;100189.41;;;13.16;100.00
48089;BME280;33867;50.314;7.802;2022-10-16T05:10:04;100171.72;;;13.30;99.25
48089;BME280;33867;50.314;7.802;2022-10-16T05:13:23;100202.63;;;13.19;97.47
48089;BME280;33867;50.314;7.802;2022-10-16T05:16:43;100204.19;;;13.30;98.40
48089;BME280;33867;50.314;7.802;2022-10-16T05:23:33;100206.44;;;13.08;99.41
48089;BME280;33867;50.314;7.802;2022-10-16T05:26:53;100189.13;;;12.85;100.00
48089;BME280;33867;50.314;7.802;2022-10-16T05:37:13;100193.09;;;13.07;98.96
48089;BME280;33867;50.314;7.802;2022-10-16T05:40:32;100190.09;;;13.18;98.12
48089;BME280;33867;50.314;7.802;2022-10-16T05:43:52;100189.88;;;13.03;100.00
48089;BME280;33867;50.314;7.802;2022-10-16T05:47:12;100200.53;;;13.05;99.10
48089;BME280;33867;50.314;7.802;2022-10-16T05:50:32;100209.19;;;13.16;98.01
48089;BME280;33867;50.314;7.802;2022-10-16T05:53:52;100224.00;;;13.12;97.47
48089;BME280;33867;50.314;7.802;2022-10-16T05:57:11;100232.19;;;13.21;97.26
48089;BME280;33867;50.314;7.802;2022-10-16T06:07:46;100222.31;;;13.11;99.26
48089;BME280;33867;50.314;7.802;2022-10-16T06:25:09;100248.25;;;13.22;97.88
48089;BME280;33867;50.314;7.802;2022-10-16T06:28:28;100252.13;;;13.20;99.95
48089;BME280;33867;50.314;7.802;2022-10-16T06:32:03;100247.09;;;13.33;97.96
48089;BME280;33867;50.314;7.802;2022-10-16T06:35:22;100247.63;;;13.28;97.47
48089;BME280;33867;50.314;7.802;2022-10-16T06:38:42;100238.63;;;13.20;98.14
48089;BME280;33867;50.314;7.802;2022-10-16T06:45:54;100261.31;;;13.35;96.74
48089;BME280;33867;50.314;7.802;2022-10-16T06:49:14;100258.13;;;13.39;96.53
48089;BME280;33867;50.314;7.802;2022-10-16T07:13:15;100319.31;;;13.40;99.22
48089;BME280;33867;50.314;7.802;2022-10-16T07:16:34;100319.53;;;13.55;97.99
48089;BME280;33867;50.314;7.802;2022-10-16T07:19:54;100338.81;;;13.52;98.91
48089;BME280;33867;50.314;7.802;2022-10-16T07:23:14;100336.16;;;13.26;100.00
48089;BME280;33867;50.314;7.802;2022-10-16T07:26:35;100325.19;;;13.28;100.00
48089;BME280;33867;50.314;7.802;2022-10-16T07:33:33;100346.81;;;13.70;98.34
48089;BME280;33867;50.314;7.802;2022-10-16T07:36:53;100355.78;;;13.36;100.00
48089;BME280;33867;50.314;7.802;2022-10-16T07:40:12;100358.38;;;13.38;100.00
48089;BME280;33867;50.314;7.802;2022-10-16T07:43:32;100352.06;;;13.37;100.00
48089;BME280;33867;50.314;7.802;2022-10-16T07:46:51;100364.00;;;13.61;100.00
48089;BME280;33867;50.314;7.802;2022-10-16T07:57:12;100380.25;;;14.03;97.35
48089;BME280;33867;50.314;7.802;2022-10-16T08:04:19;100376.72;;;14.19;97.58
48089;BME280;33867;50.314;7.802;2022-10-16T08:07:39;100384.34;;;14.31;96.18
48089;BME280;33867;50.314;7.802;2022-10-16T08:18:15;100386.09;;;14.65;95.52
48089;BME280;33867;50.314;7.802;2022-10-16T08:21:52;100389.84;;;14.80;95.59
48089;BME280;33867;50.314;7.802;2022-10-16T08:25:11;100399.47;;;14.67;96.38
48089;BME280;33867;50.314;7.802;2022-10-16T08:28:30;100402.00;;;14.52;97.04
48089;BME280;33867;50.314;7.802;2022-10-16T08:31:50;100407.34;;;14.19;98.95
48089;BME280;33867;50.314;7.802;2022-10-16T08:35:10;100413.38;;;13.97;100.00
48089;BME280;33867;50.314;7.802;2022-10-16T08:38:29;100409.41;;;14.42;99.82
48089;BME280;33867;50.314;7.802;2022-10-16T08:48:45;100423.66;;;15.25;96.63
48089;BME280;33867;50.314;7.802;2022-10-16T08:52:10;100443.31;;;15.35;95.71
48089;BME280;33867;50.314;7.802;2022-10-16T08:55:37;100441.59;;;15.50;94.84
48089;BME280;33867;50.314;7.802;2022-10-16T08:58:58;100446.00;;;15.68;93.99
48089;BME280;33867;50.314;7.802;2022-10-16T09:05:57;100450.44;;;15.53;93.29
48089;BME280;33867;50.314;7.802;2022-10-16T09:12:58;100453.28;;;15.75;94.56
48089;BME280;33867;50.314;7.802;2022-10-16T09:16:29;100453.25;;;16.23;92.16
48089;BME280;33867;50.314;7.802;2022-10-16T09:23:30;100478.03;;;16.51;90.42
48089;BME280;33867;50.314;7.802;2022-10-16T09:26:50;100482.38;;;16.37;90.63
48089;BME280;33867;50.314;7.802;2022-10-16T09:30:14;100480.66;;;16.67;90.22
48089;BME280;33867;50.314;7.802;2022-10-16T09:33:36;100475.28;;;16.59;88.36
48089;BME280;33867;50.314;7.802;2022-10-16T09:36:57;100479.38;;;16.55;89.11
48089;BME280;33867;50.314;7.802;2022-10-16T09:43:59;100487.78;;;16.99;88.54
48089;BME280;33867;50.314;7.802;2022-10-16T09:47:42;100492.81;;;17.25;89.04
48089;BME280;33867;50.314;7.802;2022-10-16T09:51:05;100489.44;;;17.23;87.33
48089;BME280;33867;50.314;7.802;2022-10-16T09:54:26;100491.25;;;17.31;87.51
48089;BME280;33867;50.314;7.802;2022-10-16T09:57:53;100487.34;;;17.48;87.59
48089;BME280;33867;50.314;7.802;2022-10-16T10:01:13;100499.78;;;17.65;86.72
48089;BME280;33867;50.314;7.802;2022-10-16T10:04:39;100498.38;;;17.69;86.30
48089;BME280;33867;50.314;7.802;2022-10-16T10:08:01;100499.91;;;17.49;86.10
48089;BME280;33867;50.314;7.802;2022-10-16T10:11:41;100500.19;;;17.16;85.44
48089;BME280;33867;50.314;7.802;2022-10-16T10:15:11;100506.63;;;17.23;87.68
48089;BME280;33867;50.314;7.802;2022-10-16T10:18:31;100498.22;;;17.48;86.98
48089;BME280;33867;50.314;7.802;2022-10-16T10:21:50;100487.53;;;17.61;85.27
48089;BME280;33867;50.314;7.802;2022-10-16T10:35:58;100476.75;;;19.48;77.19
48089;BME280;33867;50.314;7.802;2022-10-16T10:39:27;100467.19;;;20.41;73.33
48089;BME280;33867;50.314;7.802;2022-10-16T10:42:53;100460.34;;;20.65;72.39
48089;BME280;33867;50.314;7.802;2022-10-16T10:46:45;100462.28;;;20.78;71.83
48089;BME280;33867;50.314;7.802;2022-10-16T10:53:45;100460.34;;;20.65;66.92
48089;BME280;33867;50.314;7.802;2022-10-16T10:57:21;100462.03;;;20.66;66.73
48089;BME280;33867;50.314;7.802;2022-10-16T11:01:01;100466.72;;;21.19;70.64
48089;BME280;33867;50.314;7.802;2022-10-16T11:04:40;100469.84;;;21.95;69.04
48089;BME280;33867;50.314;7.802;2022-10-16T11:08:08;100455.97;;;21.83;66.79
48089;BME280;33867;50.314;7.802;2022-10-16T11:11:36;100455.78;;;20.31;68.18
48089;BME280;33867;50.314;7.802;2022-10-16T11:15:10;100447.22;;;19.93;68.66
48089;BME280;33867;50.314;7.802;2022-10-16T11:26:17;100471.53;;;20.16;73.29
48089;BME280;33867;50.314;7.802;2022-10-16T11:29:46;100463.44;;;20.42;72.75
48089;BME280;33867;50.314;7.802;2022-10-16T11:36:36;100475.63;;;20.40;70.85
48089;BME280;33867;50.314;7.802;2022-10-16T11:40:09;100473.00;;;20.19;71.77
48089;BME280;33867;50.314;7.802;2022-10-16T11:43:38;100480.31;;;20.11;72.63
48089;BME280;33867;50.314;7.802;2022-10-16T11:50:45;100462.22;;;19.69;73.25
48089;BME280;33867;50.314;7.802;2022-10-16T11:54:20;100466.06;;;19.81;74.89
48089;BME280;33867;50.314;7.802;2022-10-16T11:57:46;100462.25;;;19.76;73.80
48089;BME280;33867;50.314;7.802;2022-10-16T12:08:15;100463.38;;;20.29;70.45
48089;BME280;33867;50.314;7.802;2022-10-16T12:11:57;100466.19;;;20.42;70.53
48089;BME280;33867;50.314;7.802;2022-10-16T12:15:25;100456.59;;;20.73;70.74
48089;BME280;33867;50.314;7.802;2022-10-16T12:18:46;100465.03;;;20.85;71.28
48089;BME280;33867;50.314;7.802;2022-10-16T12:22:15;100458.94;;;20.89;71.53
48089;BME280;33867;50.314;7.802;2022-10-16T12:25:38;100471.75;;;20.76;70.55
48089;BME280;33867;50.314;7.802;2022-10-16T12:29:18;100461.88;;;20.75;71.75
48089;BME280;33867;50.314;7.802;2022-10-16T12:33:03;100471.78;;;20.89;71.55
48089;BME280;33867;50.314;7.802;2022-10-16T12:36:30;100466.44;;;20.54;69.03
48089;BME280;33867;50.314;7.802;2022-10-16T12:39:54;100474.53;;;20.34;72.99
48089;BME280;33867;50.314;7.802;2022-10-16T12:46:39;100483.94;;;20.19;75.04
48089;BME280;33867;50.314;7.802;2022-10-16T12:49:59;100482.00;;;20.12;75.88
48089;BME280;33867;50.314;7.802;2022-10-16T12:53:24;100492.84;;;19.99;76.93
48089;BME280;33867;50.314;7.802;2022-10-16T13:13:13;100467.09;;;20.15;75.55
48089;BME280;33867;50.314;7.802;2022-10-16T13:17:00;100470.69;;;20.22;76.22
48089;BME280;33867;50.314;7.802;2022-10-16T13:24:02;100488.94;;;20.08;75.59
48089;BME280;33867;50.314;7.802;2022-10-16T13:27:40;100481.69;;;19.94;76.99
48089;BME280;33867;50.314;7.802;2022-10-16T13:31:04;100491.19;;;19.98;77.71
48089;BME280;33867;50.314;7.802;2022-10-16T13:34:24;100487.19;;;20.01;77.90
48089;BME280;33867;50.314;7.802;2022-10-16T13:37:44;100491.03;;;19.50;76.27
48089;BME280;33867;50.314;7.802;2022-10-16T13:41:16;100486.38;;;19.44;78.83
48089;BME280;33867;50.314;7.802;2022-10-16T13:44:40;100488.50;;;19.49;79.00
48089;BME280;33867;50.314;7.802;2022-10-16T13:48:03;100481.78;;;19.51;79.90
48089;BME280;33867;50.314;7.802;2022-10-16T13:51:22;100482.88;;;19.29;77.24
48089;BME280;33867;50.314;7.802;2022-10-16T13:54:42;100496.41;;;19.37;79.31
48089;BME280;33867;50.314;7.802;2022-10-16T13:58:10;100493.56;;;19.52;80.09
48089;BME280;33867;50.314;7.802;2022-10-16T14:02:15;100489.94;;;19.66;79.48
48089;BME280;33867;50.314;7.802;2022-10-16T14:05:47;100493.53;;;19.67;79.61
48089;BME280;33867;50.314;7.802;2022-10-16T14:12:41;100482.69;;;19.80;78.65
48089;BME280;33867;50.314;7.802;2022-10-16T14:16:05;100483.72;;;19.79;79.68
48089;BME280;33867;50.314;7.802;2022-10-16T14:26:28;100471.56;;;19.88;79.72
48089;BME280;33867;50.314;7.802;2022-10-16T14:29:47;100475.59;;;19.92;79.89
48089;BME280;33867;50.314;7.802;2022-10-16T14:33:22;100477.44;;;19.85;79.60
48089;BME280;33867;50.314;7.802;2022-10-16T14:36:42;100481.06;;;19.58;78.73
48089;BME280;33867;50.314;7.802;2022-10-16T14:40:02;100482.97;;;19.64;79.64
48089;BME280;33867;50.314;7.802;2022-10-16T14:43:24;100485.69;;;19.64;80.45
48089;BME280;33867;50.314;7.802;2022-10-16T14:46:45;100479.88;;;19.67;80.15
48089;BME280;33867;50.314;7.802;2022-10-16T14:57:36;100489.25;;;19.58;81.04
48089;BME280;33867;50.314;7.802;2022-10-16T15:00:56;100498.28;;;19.58;81.48
48089;BME280;33867;50.314;7.802;2022-10-16T15:04:18;100497.75;;;19.48;81.96
48089;BME280;33867;50.314;7.802;2022-10-16T15:07:37;100500.38;;;19.35;82.23
48089;BME280;33867;50.314;7.802;2022-10-16T15:10:56;100500.06;;;19.23;82.86
48089;BME280;33867;50.314;7.802;2022-10-16T15:14:16;100504.88;;;19.21;83.00
48089;BME280;33867;50.314;7.802;2022-10-16T15:17:35;100505.91;;;19.20;83.09
48089;BME280;33867;50.314;7.802;2022-10-16T15:20:54;100505.06;;;19.19;83.06
48089;BME280;33867;50.314;7.802;2022-10-16T15:24:13;100503.44;;;19.25;83.26
48089;BME280;33867;50.314;7.802;2022-10-16T15:27:32;100515.28;;;19.11;83.58
48089;BME280;33867;50.314;7.802;2022-10-16T15:30:58;100508.91;;;19.04;83.86
48089;BME280;33867;50.314;7.802;2022-10-16T15:34:17;100513.72;;;19.02;84.04
48089;BME280;33867;50.314;7.802;2022-10-16T15:37:38;100510.53;;;18.62;85.05
48089;BME280;33867;50.314;7.802;2022-10-16T15:40:57;100520.09;;;18.07;87.43
48089;BME280;33867;50.314;7.802;2022-10-16T15:44:17;100512.78;;;17.93;88.62
48089;BME280;33867;50.314;7.802;2022-10-16T15:47:36;100509.47;;;17.82;89.64
48089;BME280;33867;50.314;7.802;2022-10-16T16:04:54;100506.19;;;18.02;88.66
48089;BME280;33867;50.314;7.802;2022-10-16T16:08:12;100493.88;;;18.06;88.80
48089;BME280;33867;50.314;7.802;2022-10-16T16:11:32;100493.41;;;17.88;88.80
48089;BME280;33867;50.314;7.802;2022-10-16T16:14:52;100505.72;;;17.83;88.78
48089;BME280;33867;50.314;7.802;2022-10-16T16:18:11;100513.19;;;17.67;89.52
48089;BME280;33867;50.314;7.802;2022-10-16T16:25:08;100502.56;;;17.57;89.90
48089;BME280;33867;50.314;7.802;2022-10-16T16:28:27;100509.78;;;17.50;89.84
48089;BME280;33867;50.314;7.802;2022-10-16T16:31:46;100505.06;;;17.29;91.35
48089;BME280;33867;50.314;7.802;2022-10-16T16:35:06;100496.09;;;16.75;96.49
48089;BME280;33867;50.314;7.802;2022-10-16T16:38:25;100503.13;;;16.92;94.34
48089;BME280;33867;50.314;7.802;2022-10-16T16:52:47;100520.72;;;16.81;95.75
48089;BME280;33867;50.314;7.802;2022-10-16T16:56:07;100540.34;;;16.91;95.63
48089;BME280;33867;50.314;7.802;2022-10-16T16:59:26;100545.50;;;17.09;92.78
48089;BME280;33867;50.314;7.802;2022-10-16T17:02:49;100547.84;;;17.12;93.89
48089;BME280;33867;50.314;7.802;2022-10-16T17:06:09;100543.50;;;17.03;92.20
48089;BME280;33867;50.314;7.802;2022-10-16T17:09:28;100543.44;;;17.11;91.93
48089;BME280;33867;50.314;7.802;2022-10-16T17:12:47;100543.91;;;17.15;90.92
48089;BME280;33867;50.314;7.802;2022-10-16T17:16:07;100557.22;;;17.10;92.18
48089;BME280;33867;50.314;7.802;2022-10-16T17:19:26;100554.88;;;16.84;94.73
48089;BME280;33867;50.314;7.802;2022-10-16T17:22:47;100547.25;;;17.02;92.49
48089;BME280;33867;50.314;7.802;2022-10-16T17:26:10;100549.00;;;16.95;92.67
48089;BME280;33867;50.314;7.802;2022-10-16T17:33:29;100558.16;;;16.63;92.07
48089;BME280;33867;50.314;7.802;2022-10-16T17:36:48;100565.56;;;16.46;94.18
48089;BME280;33867;50.314;7.802;2022-10-16T17:40:09;100566.28;;;16.32;93.85
48089;BME280;33867;50.314;7.802;2022-10-16T17:43:28;100565.63;;;16.22;93.61
48089;BME280;33867;50.314;7.802;2022-10-16T17:46:51;100560.44;;;16.12;93.52
48089;BME280;33867;50.314;7.802;2022-10-16T17:50:11;100569.75;;;16.09;93.18
48089;BME280;33867;50.314;7.802;2022-10-16T17:53:30;100567.38;;;16.06;93.76
48089;BME280;33867;50.314;7.802;2022-10-16T17:56:49;100566.53;;;16.06;93.09
48089;BME280;33867;50.314;7.802;2022-10-16T18:00:08;100573.16;;;16.12;92.50
48089;BME280;33867;50.314;7.802;2022-10-16T18:03:28;100580.69;;;15.69;96.22
48089;BME280;33867;50.314;7.802;2022-10-16T18:06:47;100581.38;;;15.30;100.00
48089;BME280;33867;50.314;7.802;2022-10-16T18:10:09;100582.69;;;15.26;100.00
48089;BME280;33867;50.314;7.802;2022-10-16T18:13:29;100590.00;;;15.34;100.00
48089;BME280;33867;50.314;7.802;2022-10-16T18:16:49;100591.19;;;15.23;100.00
48089;BME280;33867;50.314;7.802;2022-10-16T18:20:09;100593.41;;;15.28;100.00
48089;BME280;33867;50.314;7.802;2022-10-16T18:23:29;100601.88;;;15.33;100.00
48089;BME280;33867;50.314;7.802;2022-10-16T18:26:49;100594.94;;;15.46;96.80
48089;BME280;33867;50.314;7.802;2022-10-16T18:30:10;100605.09;;;15.44;96.66
48089;BME280;33867;50.314;7.802;2022-10-16T18:33:30;100609.50;;;15.45;97.00
48089;BME280;33867;50.314;7.802;2022-10-16T18:36:49;100607.84;;;15.53;95.77
48089;BME280;33867;50.314;7.802;2022-10-16T18:40:09;100615.25;;;15.18;99.72
48089;BME280;33867;50.314;7.802;2022-10-16T18:43:28;100617.66;;;15.29;96.88
48089;BME280;33867;50.314;7.802;2022-10-16T18:46:47;100616.06;;;15.02;100.00
48089;BME280;33867;50.314;7.802;2022-10-16T18:50:07;100612.84;;;15.15;98.49
48089;BME280;33867;50.314;7.802;2022-10-16T18:53:26;100627.78;;;15.11;96.30
48089;BME280;33867;50.314;7.802;2022-10-16T18:56:45;100625.56;;;15.06;96.66
48089;BME280;33867;50.314;7.802;2022-10-16T19:00:04;100629.47;;;15.12;95.31
48089;BME280;33867;50.314;7.802;2022-10-16T19:03:24;100631.56;;;14.76;100.00
48089;BME280;33867;50.314;7.802;2022-10-16T19:06:45;100631.97;;;14.47;100.00
48089;BME280;33867;50.314;7.802;2022-10-16T19:14:03;100631.69;;;14.66;100.00
48089;BME280;33867;50.314;7.802;2022-10-16T19:18:22;100626.50;;;14.73;98.07
48089;BME280;33867;50.314;7.802;2022-10-16T19:22:18;100636.66;;;14.79;96.74
48089;BME280;33867;50.314;7.802;2022-10-16T19:25:48;100649.66;;;14.67;100.00
48089;BME280;33867;50.314;7.802;2022-10-16T19:29:07;100645.09;;;14.68;99.25
48089;BME280;33867;50.314;7.802;2022-10-16T19:32:27;100645.53;;;14.55;99.62
48089;BME280;33867;50.314;7.802;2022-10-16T19:35:46;100648.81;;;14.67;97.79
48089;BME280;33867;50.314;7.802;2022-10-16T19:39:09;100653.75;;;14.71;96.96
48089;BME280;33867;50.314;7.802;2022-10-16T19:42:29;100650.50;;;14.68;96.10
48089;BME280;33867;50.314;7.802;2022-10-16T19:45:48;100643.25;;;14.68;96.03
48089;BME280;33867;50.314;7.802;2022-10-16T19:49:10;100654.09;;;14.76;97.60
48089;BME280;33867;50.314;7.802;2022-10-16T19:52:30;100652.34;;;14.59;98.98
48089;BME280;33867;50.314;7.802;2022-10-16T19:55:49;100650.38;;;14.69;96.88
48089;BME280;33867;50.314;7.802;2022-10-16T19:59:10;100648.97;;;14.65;96.11
48089;BME280;33867;50.314;7.802;2022-10-16T20:03:02;100645.97;;;14.68;96.52
48089;BME280;33867;50.314;7.802;2022-10-16T20:06:22;100653.94;;;14.70;97.59
48089;BME280;33867;50.314;7.802;2022-10-16T20:09:42;100656.59;;;14.61;95.72
48089;BME280;33867;50.314;7.802;2022-10-16T20:13:00;100654.56;;;14.63;99.01
48089;BME280;33867;50.314;7.802;2022-10-16T20:16:20;100662.47;;;14.49;96.67
48089;BME280;33867;50.314;7.802;2022-10-16T20:19:39;100649.44;;;14.26;99.19
48089;BME280;33867;50.314;7.802;2022-10-16T20:22:58;100649.44;;;14.26;100.00
48089;BME280;33867;50.314;7.802;2022-10-16T20:26:19;100656.72;;;14.26;99.74
48089;BME280;33867;50.314;7.802;2022-10-16T20:29:40;100652.66;;;14.04;100.00
48089;BME280;33867;50.314;7.802;2022-10-16T20:32:59;100664.25;;;14.14;100.00
48089;BME280;33867;50.314;7.802;2022-10-16T20:36:20;100656.88;;;14.24;100.00
48089;BME280;33867;50.314;7.802;2022-10-16T20:53:45;100673.56;;;14.12;98.64
48089;BME280;33867;50.314;7.802;2022-10-16T20:57:04;100671.19;;;14.17;100.00
48089;BME280;33867;50.314;7.802;2022-10-16T21:00:23;100673.06;;;14.16;97.93
48089;BME280;33867;50.314;7.802;2022-10-16T21:03:43;100666.00;;;13.97;100.00
48089;BME280;33867;50.314;7.802;2022-10-16T21:07:03;100671.56;;;13.96;99.04
48089;BME280;33867;50.314;7.802;2022-10-16T21:10:22;100664.00;;;13.99;97.41
48089;BME280;33867;50.314;7.802;2022-10-16T21:13:42;100668.13;;;13.86;99.88
48089;BME280;33867;50.314;7.802;2022-10-16T21:17:01;100664.69;;;13.84;99.23
48089;BME280;33867;50.314;7.802;2022-10-16T21:20:20;100663.91;;;13.91;98.77
48089;BME280;33867;50.314;7.802;2022-10-16T21:23:39;100662.16;;;13.82;99.56
48089;BME280;33867;50.314;7.802;2022-10-16T21:26:58;100663.91;;;13.91;98.32
48089;BME280;33867;50.314;7.802;2022-10-16T21:30:17;100668.59;;;14.07;97.63
48089;BME280;33867;50.314;7.802;2022-10-16T21:33:36;100663.25;;;14.15;100.00
48089;BME280;33867;50.314;7.802;2022-10-16T21:36:55;100670.25;;;14.00;99.46
48089;BME280;33867;50.314;7.802;2022-10-16T21:40:14;100664.56;;;14.11;97.78
48089;BME280;33867;50.314;7.802;2022-10-16T21:43:34;100663.81;;;14.01;100.00
48089;BME280;33867;50.314;7.802;2022-10-16T21:46:53;100661.66;;;14.04;99.42
48089;BME280;33867;50.314;7.802;2022-10-16T21:50:12;100663.31;;;13.97;100.00
48089;BME280;33867;50.314;7.802;2022-10-16T21:53:31;100661.56;;;13.96;99.34
48089;BME280;33867;50.314;7.802;2022-10-16T21:56:52;100666.91;;;14.06;97.88
48089;BME280;33867;50.314;7.802;2022-10-16T22:00:12;100664.56;;;14.11;96.39
48089;BME280;33867;50.314;7.802;2022-10-16T22:03:32;100664.94;;;13.90;100.00
48089;BME280;33867;50.314;7.802;2022-10-16T22:06:50;100676.84;;;13.97;98.23
48089;BME280;33867;50.314;7.802;2022-10-16T22:10:10;100673.31;;;14.05;99.25
48089;BME280;33867;50.314;7.802;2022-10-16T22:13:29;100671.78;;;14.02;98.03
48089;BME280;33867;50.314;7.802;2022-10-16T22:16:48;100685.69;;;14.08;97.42
48089;BME280;33867;50.314;7.802;2022-10-16T22:20:08;100679.75;;;14.04;96.83
48089;BME280;33867;50.314;7.802;2022-10-16T22:23:28;100681.84;;;14.10;96.50
48089;BME280;33867;50.314;7.802;2022-10-16T22:26:47;100687.53;;;14.07;96.76
48089;BME280;33867;50.314;7.802;2022-10-16T22:33:46;100694.13;;;14.04;98.76